createdAt,value
2018-07-31T00:00:25.661Z,24.40
2018-07-31T00:02:52.852Z,24.40
2018-07-31T00:05:20.157Z,24.30
2018-07-31T00:07:47.452Z,24.20
2018-07-31T00:10:14.744Z,24.30
2018-07-31T00:12:42.428Z,24.20
2018-07-31T00:15:10.857Z,24.20
2018-07-31T00:17:38.059Z,24.20
2018-07-31T00:20:05.469Z,24.10
2018-07-31T00:22:32.823Z,24.00
2018-07-31T00:25:00.097Z,23.90
2018-07-31T00:27:27.260Z,23.80
2018-07-31T00:29:54.427Z,23.80
2018-07-31T00:32:21.580Z,23.70
2018-07-31T00:34:48.768Z,23.70
2018-07-31T00:37:15.956Z,23.70
2018-07-31T00:39:43.120Z,23.70
2018-07-31T00:42:10.288Z,23.60
2018-07-31T00:44:37.521Z,23.80
2018-07-31T00:47:04.736Z,23.90
2018-07-31T00:49:31.892Z,23.90
2018-07-31T00:51:59.176Z,24.00
2018-07-31T00:54:26.352Z,23.80
2018-07-31T00:56:53.521Z,23.60
2018-07-31T00:59:20.691Z,23.50
2018-07-31T01:01:47.852Z,23.50
2018-07-31T01:04:15.028Z,23.50
2018-07-31T01:06:43.257Z,23.40
2018-07-31T01:09:11.856Z,23.30
2018-07-31T01:11:39.548Z,23.20
2018-07-31T01:14:07.893Z,23.20
2018-07-31T01:16:35.444Z,23.20
2018-07-31T01:19:02.630Z,23.30
2018-07-31T01:21:29.793Z,23.20
2018-07-31T01:23:56.968Z,23.30
2018-07-31T01:26:24.176Z,23.30
2018-07-31T01:28:51.612Z,23.40
2018-07-31T01:31:18.786Z,23.60
2018-07-31T01:36:13.240Z,23.50
2018-07-31T01:38:40.415Z,23.40
2018-07-31T01:41:07.687Z,23.40
2018-07-31T01:43:34.856Z,23.30
2018-07-31T01:46:02.126Z,23.30
2018-07-31T01:48:29.268Z,23.30
2018-07-31T01:50:56.436Z,23.30
2018-07-31T01:53:23.599Z,23.20
2018-07-31T01:55:50.775Z,23.10
2018-07-31T01:58:17.939Z,23.20
2018-07-31T02:00:45.117Z,23.20
2018-07-31T02:03:12.283Z,23.00
2018-07-31T02:05:39.468Z,23.10
2018-07-31T02:08:06.676Z,22.90
2018-07-31T02:10:33.843Z,22.90
2018-07-31T02:13:01.025Z,22.80
2018-07-31T02:15:28.232Z,22.80
2018-07-31T02:17:55.396Z,22.70
2018-07-31T02:20:22.552Z,22.50
2018-07-31T02:22:49.920Z,22.40
2018-07-31T02:25:17.120Z,22.30
2018-07-31T02:27:44.296Z,22.40
2018-07-31T02:30:16.948Z,22.40
2018-07-31T02:32:44.120Z,22.50
2018-07-31T02:35:11.269Z,22.40
2018-07-31T02:37:38.452Z,22.30
2018-07-31T02:40:05.672Z,22.20
2018-07-31T02:42:32.884Z,22.10
2018-07-31T02:45:00.098Z,22.10
2018-07-31T02:47:27.304Z,22.20
2018-07-31T02:49:54.492Z,22.20
2018-07-31T02:52:21.648Z,22.10
2018-07-31T02:54:48.933Z,22.10
2018-07-31T02:57:16.097Z,22.10
2018-07-31T02:59:43.309Z,22.00
2018-07-31T03:02:10.468Z,22.00
2018-07-31T03:04:37.644Z,21.90
2018-07-31T03:07:04.922Z,21.90
2018-07-31T03:09:32.096Z,21.90
2018-07-31T03:11:59.283Z,22.00
2018-07-31T03:14:26.448Z,21.90
2018-07-31T03:16:53.600Z,21.80
2018-07-31T03:19:20.783Z,21.80
2018-07-31T03:21:47.991Z,21.80
2018-07-31T03:24:15.197Z,21.80
2018-07-31T03:26:42.493Z,21.70
2018-07-31T03:29:09.752Z,21.60
2018-07-31T03:31:36.921Z,21.60
2018-07-31T03:34:04.233Z,21.60
2018-07-31T03:36:31.551Z,21.60
2018-07-31T03:38:58.727Z,21.50
2018-07-31T03:41:25.877Z,21.50
2018-07-31T03:43:53.141Z,21.60
2018-07-31T03:46:20.337Z,21.60
2018-07-31T03:48:47.518Z,21.60
2018-07-31T03:51:14.690Z,21.70
2018-07-31T03:53:41.871Z,21.70
2018-07-31T03:56:09.044Z,21.60
2018-07-31T03:58:36.228Z,21.60
2018-07-31T04:01:03.400Z,21.50
2018-07-31T04:03:30.568Z,21.60
2018-07-31T04:05:57.717Z,21.70
2018-07-31T04:08:24.972Z,21.80
2018-07-31T04:10:52.140Z,22.00
2018-07-31T04:13:19.364Z,22.00
2018-07-31T04:15:46.547Z,22.00
2018-07-31T04:18:13.818Z,21.90
2018-07-31T04:20:41.012Z,22.00
2018-07-31T04:23:08.255Z,22.20
2018-07-31T04:25:35.456Z,22.10
2018-07-31T04:28:02.700Z,22.10
2018-07-31T04:30:29.988Z,22.20
2018-07-31T04:32:57.188Z,22.20
2018-07-31T04:35:24.393Z,22.10
2018-07-31T04:37:51.548Z,22.10
2018-07-31T04:40:18.739Z,22.20
2018-07-31T04:42:45.904Z,22.10
2018-07-31T04:45:13.077Z,22.00
2018-07-31T04:47:40.232Z,22.00
2018-07-31T04:50:08.171Z,21.90
2018-07-31T04:52:35.427Z,22.00
2018-07-31T04:55:02.729Z,22.10
2018-07-31T04:57:29.893Z,22.10
2018-07-31T04:59:57.165Z,22.00
2018-07-31T05:02:24.336Z,22.00
2018-07-31T05:04:51.523Z,22.00
2018-07-31T05:07:18.684Z,21.90
2018-07-31T05:09:45.867Z,21.90
2018-07-31T05:12:13.218Z,21.90
2018-07-31T05:14:40.424Z,21.90
2018-07-31T05:17:07.597Z,21.90
2018-07-31T05:19:34.821Z,22.00
2018-07-31T05:22:01.996Z,22.10
2018-07-31T05:24:29.219Z,22.10
2018-07-31T05:26:56.384Z,22.10
2018-07-31T05:29:23.532Z,22.20
2018-07-31T05:31:50.764Z,22.30
2018-07-31T05:34:18.004Z,22.40
2018-07-31T05:36:45.183Z,22.30
2018-07-31T05:39:12.493Z,22.40
2018-07-31T05:41:39.688Z,22.40
2018-07-31T05:44:06.855Z,22.50
2018-07-31T05:46:34.036Z,22.50
2018-07-31T05:49:01.601Z,22.50
2018-07-31T05:51:28.768Z,22.50
2018-07-31T05:56:23.297Z,22.60
2018-07-31T05:58:50.529Z,22.60
2018-07-31T06:01:17.708Z,22.70
2018-07-31T06:03:44.937Z,22.70
2018-07-31T06:06:12.184Z,22.80
2018-07-31T06:13:33.935Z,23.10
2018-07-31T06:16:01.605Z,23.20
2018-07-31T06:18:28.777Z,23.20
2018-07-31T06:20:55.984Z,23.20
2018-07-31T06:23:23.244Z,23.20
2018-07-31T06:25:50.589Z,23.40
2018-07-31T06:28:17.773Z,23.50
2018-07-31T06:30:45.044Z,23.50
2018-07-31T06:33:12.959Z,23.60
2018-07-31T06:35:41.037Z,23.60
2018-07-31T06:38:09.124Z,23.60
2018-07-31T06:40:36.306Z,23.70
2018-07-31T06:43:03.529Z,23.70
2018-07-31T06:45:30.711Z,23.80
2018-07-31T06:47:58.004Z,24.00
2018-07-31T06:50:25.180Z,24.00
2018-07-31T06:52:52.426Z,24.10
2018-07-31T06:55:19.697Z,24.10
2018-07-31T06:57:46.941Z,24.10
2018-07-31T07:02:41.412Z,24.50
2018-07-31T07:05:08.740Z,24.50
2018-07-31T07:07:35.957Z,24.50
2018-07-31T07:10:03.476Z,24.50
2018-07-31T07:12:30.632Z,24.50
2018-07-31T07:14:57.804Z,24.70
2018-07-31T07:17:24.972Z,24.80
2018-07-31T07:19:52.139Z,25.10
2018-07-31T07:22:19.304Z,25.20
2018-07-31T07:24:46.491Z,25.30
2018-07-31T07:27:13.659Z,25.30
2018-07-31T07:29:40.912Z,25.30
2018-07-31T07:32:08.083Z,25.50
2018-07-31T07:34:35.331Z,25.60
2018-07-31T07:39:29.684Z,25.80
2018-07-31T07:41:56.985Z,25.90
2018-07-31T07:44:24.200Z,26.10
2018-07-31T07:46:51.371Z,26.40
2018-07-31T07:49:18.641Z,26.60
2018-07-31T07:51:45.857Z,26.80
2018-07-31T07:54:13.168Z,27.00
2018-07-31T07:56:40.327Z,27.40
2018-07-31T07:59:07.508Z,27.70
2018-07-31T08:01:34.692Z,27.90
2018-07-31T08:04:01.950Z,28.00
2018-07-31T08:06:29.204Z,28.20
2018-07-31T08:08:56.420Z,28.40
2018-07-31T08:11:23.599Z,28.60
2018-07-31T08:16:18.056Z,28.70
2018-07-31T08:18:45.207Z,28.70
2018-07-31T08:21:12.512Z,28.90
2018-07-31T08:23:39.697Z,29.10
2018-07-31T08:26:07.073Z,29.20
2018-07-31T08:28:34.263Z,29.50
2018-07-31T08:33:28.682Z,29.90
2018-07-31T08:35:55.900Z,30.00
2018-07-31T08:38:23.080Z,30.10
2018-07-31T08:40:50.252Z,30.20
2018-07-31T08:43:17.414Z,30.20
2018-07-31T08:45:44.698Z,30.30
2018-07-31T08:48:11.978Z,30.30
2018-07-31T08:50:39.228Z,30.40
2018-07-31T08:53:06.538Z,30.50
2018-07-31T08:55:33.742Z,30.50
2018-07-31T08:58:00.938Z,30.40
2018-07-31T09:00:28.107Z,30.50
2018-07-31T09:02:55.436Z,30.70
2018-07-31T09:05:22.610Z,30.80
2018-07-31T09:07:49.784Z,31.20
2018-07-31T09:12:44.156Z,31.60
2018-07-31T09:15:11.345Z,31.60
2018-07-31T09:17:38.632Z,31.70
2018-07-31T09:20:05.916Z,31.90
2018-07-31T09:22:33.089Z,32.10
2018-07-31T09:27:27.515Z,32.10
2018-07-31T09:29:54.796Z,32.30
2018-07-31T09:32:27.727Z,32.40
2018-07-31T09:34:54.975Z,32.50
2018-07-31T09:37:22.184Z,32.80
2018-07-31T09:39:49.353Z,33.00
2018-07-31T09:42:16.536Z,33.10
2018-07-31T09:44:43.705Z,33.20
2018-07-31T09:47:10.899Z,33.40
2018-07-31T09:49:38.077Z,33.80
2018-07-31T09:52:05.913Z,34.10
2018-07-31T09:54:33.068Z,34.80
2018-07-31T09:57:00.352Z,35.40
2018-07-31T09:59:27.528Z,35.70
2018-07-31T10:01:54.957Z,36.10
2018-07-31T10:04:22.120Z,36.40
2018-07-31T10:06:49.371Z,36.90
2018-07-31T10:09:16.552Z,37.60
2018-07-31T10:11:43.772Z,38.30
2018-07-31T10:14:10.960Z,38.80
2018-07-31T10:16:38.133Z,39.20
2018-07-31T10:19:05.329Z,39.70
2018-07-31T10:23:59.704Z,40.20
2018-07-31T10:26:26.870Z,40.70
2018-07-31T10:28:54.149Z,41.10
2018-07-31T10:31:21.312Z,41.20
2018-07-31T10:33:48.500Z,41.50
2018-07-31T10:36:15.779Z,41.80
2018-07-31T10:38:43.033Z,42.10
2018-07-31T10:41:10.183Z,42.20
2018-07-31T10:43:37.370Z,41.90
2018-07-31T10:46:04.559Z,41.70
2018-07-31T10:48:31.745Z,41.70
2018-07-31T10:53:26.112Z,41.70
2018-07-31T10:55:53.293Z,41.40
2018-07-31T10:58:20.529Z,41.40
2018-07-31T11:00:47.675Z,41.30
2018-07-31T11:03:14.903Z,41.30
2018-07-31T11:05:42.008Z,41.40
2018-07-31T11:08:09.179Z,41.30
2018-07-31T11:10:36.373Z,40.60
2018-07-31T11:13:03.720Z,39.60
2018-07-31T11:15:30.944Z,39.00
2018-07-31T11:17:58.144Z,39.40
2018-07-31T11:20:25.417Z,39.90
2018-07-31T11:25:19.884Z,40.40
2018-07-31T11:27:47.064Z,40.60
2018-07-31T11:30:14.244Z,40.60
2018-07-31T11:32:41.440Z,40.80
2018-07-31T11:35:08.738Z,40.90
2018-07-31T11:37:36.056Z,40.80
2018-07-31T11:40:03.268Z,40.90
2018-07-31T11:42:30.427Z,40.90
2018-07-31T11:44:57.628Z,41.20
2018-07-31T11:47:24.894Z,41.30
2018-07-31T11:49:52.093Z,41.20
2018-07-31T11:52:19.381Z,41.20
2018-07-31T11:54:46.579Z,41.20
2018-07-31T11:57:15.839Z,41.30
2018-07-31T11:59:43.023Z,41.30
2018-07-31T12:02:10.192Z,41.30
2018-07-31T12:04:37.390Z,41.20
2018-07-31T12:09:31.804Z,40.70
2018-07-31T12:11:59.003Z,40.30
2018-07-31T12:14:26.253Z,39.00
2018-07-31T12:16:53.420Z,38.00
2018-07-31T12:19:20.712Z,37.20
2018-07-31T12:21:47.958Z,36.50
2018-07-31T12:24:15.217Z,35.90
2018-07-31T12:26:42.640Z,35.30
2018-07-31T12:29:10.009Z,34.80
2018-07-31T12:31:37.960Z,34.50
2018-07-31T12:34:05.796Z,34.30
2018-07-31T12:36:33.913Z,34.60
2018-07-31T12:41:28.403Z,35.70
2018-07-31T12:43:55.790Z,36.00
2018-07-31T12:46:23.051Z,35.90
2018-07-31T12:48:50.237Z,35.50
2018-07-31T12:51:17.401Z,35.00
2018-07-31T12:53:44.728Z,34.60
2018-07-31T12:56:11.920Z,34.50
2018-07-31T12:58:39.104Z,34.40
2018-07-31T13:01:06.412Z,34.30
2018-07-31T13:03:33.571Z,34.40
2018-07-31T13:06:00.955Z,34.60
2018-07-31T13:08:28.152Z,35.00
2018-07-31T13:10:55.341Z,35.20
2018-07-31T13:13:22.590Z,35.50
2018-07-31T13:15:49.721Z,36.00
2018-07-31T13:18:16.903Z,36.60
2018-07-31T13:20:44.236Z,37.20
2018-07-31T13:23:11.574Z,37.80
2018-07-31T13:25:39.616Z,38.20
2018-07-31T13:28:06.792Z,38.40
2018-07-31T13:30:34.021Z,38.50
2018-07-31T13:33:01.376Z,38.50
2018-07-31T13:35:28.592Z,38.70
2018-07-31T13:40:25.077Z,37.50
2018-07-31T13:42:52.340Z,37.00
2018-07-31T13:45:19.578Z,36.50
2018-07-31T13:47:46.784Z,36.20
2018-07-31T13:50:13.956Z,36.20
2018-07-31T13:52:41.136Z,36.30
2018-07-31T13:55:08.465Z,36.70
2018-07-31T13:57:35.689Z,37.20
2018-07-31T14:00:03.362Z,37.60
2018-07-31T14:02:30.717Z,37.20
2018-07-31T14:04:57.976Z,36.70
2018-07-31T14:07:25.239Z,36.10
2018-07-31T14:12:19.677Z,35.30
2018-07-31T14:14:46.874Z,35.10
2018-07-31T14:17:14.137Z,34.90
2018-07-31T14:19:41.726Z,34.60
2018-07-31T14:22:08.939Z,34.40
2018-07-31T14:27:20.071Z,34.60
2018-07-31T14:29:48.207Z,35.60
2018-07-31T14:32:15.825Z,35.60
2018-07-31T14:34:43.472Z,35.40
2018-07-31T14:37:13.256Z,35.70
2018-07-31T14:39:41.133Z,35.80
2018-07-31T14:42:08.855Z,36.30
2018-07-31T14:44:36.556Z,36.40
2018-07-31T14:47:04.341Z,36.30
2018-07-31T14:49:32.010Z,36.00
2018-07-31T14:52:01.018Z,35.90
2018-07-31T14:54:28.865Z,36.00
2018-07-31T14:56:56.744Z,35.90
2018-07-31T14:59:24.886Z,35.70
2018-07-31T15:01:52.550Z,35.70
2018-07-31T15:04:20.198Z,35.50
2018-07-31T15:06:47.984Z,35.40
2018-07-31T15:09:15.694Z,35.30
2018-07-31T15:11:43.391Z,35.20
2018-07-31T15:14:11.133Z,35.20
2018-07-31T15:16:38.795Z,35.00
2018-07-31T15:19:06.425Z,34.90
2018-07-31T15:21:34.362Z,34.80
2018-07-31T15:24:01.991Z,34.90
2018-07-31T15:26:30.230Z,35.10
2018-07-31T15:28:58.078Z,35.30
2018-07-31T15:31:25.749Z,35.60
2018-07-31T15:33:53.837Z,35.70
2018-07-31T15:36:22.883Z,35.90
2018-07-31T15:38:50.458Z,36.10
2018-07-31T15:41:18.312Z,36.20
2018-07-31T15:43:45.993Z,36.10
2018-07-31T15:46:15.020Z,36.00
2018-07-31T15:48:42.674Z,35.70
2018-07-31T15:51:11.559Z,35.70
2018-07-31T15:53:39.191Z,35.60
2018-07-31T15:56:06.868Z,35.60
2018-07-31T15:58:34.508Z,35.60
2018-07-31T16:01:02.199Z,35.60
2018-07-31T16:03:29.865Z,35.60
2018-07-31T16:05:57.708Z,35.60
2018-07-31T16:08:25.443Z,35.50
2018-07-31T16:10:53.165Z,35.50
2018-07-31T16:13:20.809Z,35.50
2018-07-31T16:15:48.458Z,35.30
2018-07-31T16:18:16.669Z,35.30
2018-07-31T16:20:44.244Z,35.30
2018-07-31T16:23:11.978Z,35.20
2018-07-31T16:25:39.817Z,35.20
2018-07-31T16:28:07.701Z,35.20
2018-07-31T16:30:35.728Z,35.20
2018-07-31T16:33:03.458Z,35.00
2018-07-31T16:35:31.285Z,34.90
2018-07-31T16:37:58.896Z,34.80
2018-07-31T16:40:26.860Z,34.80
2018-07-31T16:42:54.462Z,34.70
2018-07-31T16:45:21.988Z,34.50
2018-07-31T16:47:49.480Z,34.50
2018-07-31T16:50:17.066Z,34.40
2018-07-31T16:53:17.950Z,34.50
2018-07-31T16:55:46.938Z,34.50
2018-07-31T16:58:14.422Z,34.50
2018-07-31T17:00:43.263Z,34.50
2018-07-31T17:03:10.784Z,34.50
2018-07-31T17:05:39.429Z,34.50
2018-07-31T17:08:06.967Z,34.20
2018-07-31T17:10:34.572Z,34.20
2018-07-31T17:13:02.112Z,33.90
2018-07-31T17:15:29.707Z,33.70
2018-07-31T17:17:57.626Z,33.60
2018-07-31T17:20:25.233Z,33.70
2018-07-31T17:22:52.915Z,33.60
2018-07-31T17:25:20.439Z,33.60
2018-07-31T17:27:49.609Z,33.50
2018-07-31T17:30:17.365Z,33.30
2018-07-31T17:32:45.006Z,33.40
2018-07-31T17:35:13.256Z,33.40
2018-07-31T17:37:42.043Z,33.30
2018-07-31T17:40:09.759Z,33.40
2018-07-31T17:42:37.329Z,33.40
2018-07-31T17:45:05.319Z,33.30
2018-07-31T17:47:32.907Z,33.30
2018-07-31T17:50:00.452Z,33.30
2018-07-31T17:52:28.212Z,33.20
2018-07-31T17:54:57.375Z,33.20
2018-07-31T17:57:25.280Z,33.20
2018-07-31T17:59:53.946Z,33.10
2018-07-31T18:02:21.796Z,33.10
2018-07-31T18:04:49.701Z,33.00
2018-07-31T18:07:17.453Z,33.00
2018-07-31T18:09:45.307Z,33.00
2018-07-31T18:12:12.863Z,32.90
2018-07-31T18:14:40.876Z,32.80
2018-07-31T18:17:10.141Z,32.80
2018-07-31T18:19:39.192Z,32.80
2018-07-31T18:22:07.224Z,32.60
2018-07-31T18:24:34.923Z,32.60
2018-07-31T18:27:02.573Z,32.60
2018-07-31T18:29:30.180Z,32.60
2018-07-31T18:31:58.114Z,32.50
2018-07-31T18:34:25.938Z,32.40
2018-07-31T18:36:53.540Z,32.20
2018-07-31T18:39:21.361Z,32.10
2018-07-31T18:41:49.175Z,31.90
2018-07-31T18:44:16.724Z,31.80
2018-07-31T18:46:44.303Z,31.80
2018-07-31T18:49:13.036Z,31.70
2018-07-31T18:51:40.900Z,31.60
2018-07-31T18:54:08.588Z,31.50
2018-07-31T18:56:36.190Z,31.50
2018-07-31T19:01:32.092Z,31.40
2018-07-31T19:03:59.925Z,31.50
2018-07-31T19:06:27.614Z,31.40
2018-07-31T19:08:56.503Z,31.20
2018-07-31T19:11:24.163Z,31.10
2018-07-31T19:13:52.189Z,31.00
2018-07-31T19:16:19.996Z,30.90
2018-07-31T19:18:47.618Z,30.80
2018-07-31T19:21:15.149Z,30.80
2018-07-31T19:23:42.782Z,30.70
2018-07-31T19:26:11.012Z,30.60
2018-07-31T19:28:39.947Z,30.50
2018-07-31T19:31:08.032Z,30.50
2018-07-31T19:33:36.116Z,30.50
2018-07-31T19:36:03.789Z,30.50
2018-07-31T19:38:31.348Z,30.50
2018-07-31T19:41:00.255Z,30.40
2018-07-31T19:43:27.984Z,30.40
2018-07-31T19:45:55.585Z,30.30
2018-07-31T19:48:23.115Z,30.30
2018-07-31T19:50:50.827Z,30.20
2018-07-31T19:53:18.585Z,30.20
2018-07-31T19:55:46.155Z,30.10
2018-07-31T19:58:14.519Z,30.00
2018-07-31T20:03:10.717Z,29.90
2018-07-31T20:05:38.610Z,29.90
2018-07-31T20:08:06.633Z,29.90
2018-07-31T20:10:34.869Z,29.80
2018-07-31T20:13:02.608Z,29.70
2018-07-31T20:15:31.400Z,29.60
2018-07-31T20:17:59.282Z,29.50
2018-07-31T20:20:27.061Z,29.40
2018-07-31T20:22:54.644Z,29.50
2018-07-31T20:25:22.266Z,29.60
2018-07-31T20:27:50.194Z,29.60
2018-07-31T20:30:18.000Z,29.50
2018-07-31T20:32:45.872Z,29.30
2018-07-31T20:35:13.444Z,29.20
2018-07-31T20:37:40.992Z,29.20
2018-07-31T20:40:08.961Z,29.20
2018-07-31T20:42:36.809Z,29.20
2018-07-31T20:45:04.474Z,29.10
2018-07-31T20:47:32.479Z,29.10
2018-07-31T20:50:00.493Z,29.00
2018-07-31T20:52:28.069Z,28.90
2018-07-31T20:54:55.815Z,28.90
2018-07-31T20:57:23.476Z,28.80
2018-07-31T20:59:51.720Z,28.70
2018-07-31T21:02:19.250Z,28.60
2018-07-31T21:04:47.008Z,28.40
2018-07-31T22:44:51.981Z,28.30
2018-07-31T22:47:19.472Z,27.20
2018-07-31T22:49:46.954Z,27.00
2018-07-31T22:52:14.460Z,27.00
2018-07-31T22:54:42.022Z,26.80
2018-07-31T22:57:09.500Z,26.80
2018-07-31T22:59:36.992Z,26.70
2018-07-31T23:02:04.478Z,26.60
2018-07-31T23:04:32.150Z,26.50
2018-07-31T23:06:59.709Z,26.40
2018-07-31T23:09:27.316Z,26.40
2018-07-31T23:11:54.785Z,26.30
2018-07-31T23:14:22.375Z,26.30
2018-07-31T23:16:49.856Z,26.40
2018-07-31T23:19:17.397Z,26.40
2018-07-31T23:21:44.966Z,26.30
2018-07-31T23:24:12.431Z,26.20
2018-07-31T23:29:07.508Z,26.10
2018-07-31T23:31:35.011Z,26.10
2018-07-31T23:34:02.503Z,26.00
2018-07-31T23:36:30.141Z,26.10
2018-07-31T23:41:25.021Z,26.20
2018-07-31T23:43:52.573Z,26.10
2018-07-31T23:46:20.063Z,26.10
2018-07-31T23:51:15.011Z,26.20
2018-07-31T23:53:42.678Z,26.20
2018-07-31T23:56:10.174Z,26.00
2018-07-31T23:58:37.740Z,25.90
